createdAt,value
2023-05-23T00:01:32.522Z,1.00
2023-05-23T00:03:59.679Z,1.00
2023-05-23T00:06:26.883Z,1.00
2023-05-23T00:08:54.029Z,1.00
2023-05-23T00:11:24.162Z,1.00
2023-05-23T00:13:51.383Z,1.00
2023-05-23T00:16:18.378Z,1.00
2023-05-23T00:18:45.876Z,1.00
2023-05-23T00:21:13.707Z,1.00
2023-05-23T00:23:43.448Z,1.00
2023-05-23T00:26:11.053Z,1.00
2023-05-23T00:28:38.553Z,1.00
2023-05-23T00:31:05.798Z,1.00
2023-05-23T00:33:34.312Z,1.00
2023-05-23T00:36:01.307Z,1.00
2023-05-23T00:38:28.619Z,1.00
2023-05-23T00:40:55.526Z,1.00
2023-05-23T00:43:22.873Z,1.00
2023-05-23T00:45:49.978Z,1.00
2023-05-23T00:48:17.302Z,1.00
2023-05-23T00:50:44.642Z,1.00
2023-05-23T00:53:13.330Z,1.00
2023-05-23T00:55:40.526Z,1.00
2023-05-23T00:58:07.703Z,1.00
2023-05-23T01:00:35.981Z,1.00
2023-05-23T01:03:03.247Z,1.00
2023-05-23T01:05:30.586Z,1.00
2023-05-23T01:07:57.511Z,1.00
2023-05-23T01:10:27.254Z,1.00
2023-05-23T01:13:26.071Z,1.00
2023-05-23T01:16:12.209Z,1.00
2023-05-23T01:18:58.395Z,1.00
2023-05-23T01:21:26.962Z,1.00
2023-05-23T01:24:26.720Z,1.00
2023-05-23T01:27:24.278Z,1.00
2023-05-23T01:29:56.952Z,1.00
2023-05-23T01:32:25.840Z,1.00
2023-05-23T01:34:56.514Z,1.00
2023-05-23T01:37:23.418Z,1.00
2023-05-23T01:39:50.289Z,1.00
2023-05-23T01:42:17.734Z,1.00
2023-05-23T01:44:46.288Z,1.00
2023-05-23T01:47:15.106Z,1.00
2023-05-23T01:49:44.883Z,1.00
2023-05-23T01:52:13.302Z,1.00
2023-05-23T01:54:42.561Z,1.00
2023-05-23T01:57:10.892Z,1.00
2023-05-23T01:59:39.033Z,1.00
2023-05-23T02:02:06.399Z,1.00
2023-05-23T02:04:33.953Z,1.00
2023-05-23T02:07:00.969Z,1.00
2023-05-23T02:09:27.988Z,1.00
2023-05-23T02:11:55.017Z,1.00
2023-05-23T02:14:21.923Z,1.00
2023-05-23T02:16:48.870Z,1.00
2023-05-23T02:19:15.824Z,1.00
2023-05-23T02:21:42.929Z,1.00
2023-05-23T02:24:09.887Z,1.00
2023-05-23T02:26:37.191Z,1.00
2023-05-23T02:29:04.352Z,1.00
2023-05-23T02:31:31.626Z,1.00
2023-05-23T02:33:58.762Z,1.00
2023-05-23T02:36:25.732Z,1.00
2023-05-23T02:38:52.692Z,1.00
2023-05-23T02:41:19.692Z,1.00
2023-05-23T02:43:47.857Z,1.00
2023-05-23T02:46:14.858Z,1.00
2023-05-23T02:48:41.876Z,1.00
2023-05-23T02:51:08.753Z,1.00
2023-05-23T02:53:35.641Z,1.00
2023-05-23T02:56:02.521Z,1.00
2023-05-23T02:58:30.084Z,1.00
2023-05-23T03:00:57.157Z,1.00
2023-05-23T03:03:24.289Z,1.00
2023-05-23T03:05:51.632Z,1.00
2023-05-23T03:08:18.629Z,1.00
2023-05-23T03:10:45.829Z,1.00
2023-05-23T03:13:12.943Z,1.00
2023-05-23T03:15:40.078Z,1.00
2023-05-23T03:18:07.292Z,1.00
2023-05-23T03:20:34.334Z,1.00
2023-05-23T03:23:01.319Z,1.00
2023-05-23T03:25:28.262Z,1.00
2023-05-23T03:27:55.228Z,1.00
2023-05-23T03:30:22.376Z,1.00
2023-05-23T03:32:50.003Z,1.00
2023-05-23T03:35:17.232Z,1.00
2023-05-23T03:37:44.175Z,1.00
2023-05-23T03:40:11.190Z,1.00
2023-05-23T03:42:39.328Z,1.00
2023-05-23T03:45:06.984Z,1.00
2023-05-23T03:47:34.116Z,1.00
2023-05-23T03:50:01.223Z,1.00
2023-05-23T03:52:28.213Z,1.00
2023-05-23T03:54:55.188Z,1.00
2023-05-23T03:57:22.863Z,1.00
2023-05-23T03:59:50.556Z,1.00
2023-05-23T04:02:17.623Z,1.00
2023-05-23T04:04:44.631Z,1.00
2023-05-23T04:07:11.623Z,1.00
2023-05-23T04:09:38.537Z,1.00
2023-05-23T04:12:06.224Z,1.00
2023-05-23T04:14:33.716Z,1.00
2023-05-23T04:17:01.067Z,1.00
2023-05-23T04:19:28.184Z,1.00
2023-05-23T04:21:55.167Z,1.00
2023-05-23T04:24:22.176Z,1.00
2023-05-23T04:26:49.776Z,1.00
2023-05-23T04:29:16.944Z,1.00
2023-05-23T04:31:46.316Z,1.00
2023-05-23T04:34:13.536Z,1.00
2023-05-23T04:36:40.533Z,1.00
2023-05-23T04:39:07.595Z,1.00
2023-05-23T04:41:34.568Z,1.00
2023-05-23T04:44:01.504Z,1.00
2023-05-23T04:46:29.001Z,1.00
2023-05-23T04:48:56.491Z,1.00
2023-05-23T04:51:23.437Z,1.00
2023-05-23T04:53:51.357Z,1.00
2023-05-23T04:56:21.846Z,1.00
2023-05-23T04:58:49.370Z,1.00
2023-05-23T05:01:16.352Z,1.00
2023-05-23T05:03:43.451Z,1.00
2023-05-23T05:06:10.620Z,1.00
2023-05-23T05:08:37.575Z,1.00
2023-05-23T05:11:04.680Z,1.00
2023-05-23T05:13:31.676Z,1.00
2023-05-23T05:15:58.942Z,1.00
2023-05-23T05:18:30.066Z,1.00
2023-05-23T05:20:57.244Z,1.00
2023-05-23T05:23:28.972Z,1.00
2023-05-23T05:25:56.939Z,1.00
2023-05-23T05:28:24.143Z,1.00
2023-05-23T05:30:54.392Z,1.00
2023-05-23T05:33:25.173Z,1.00
2023-05-23T05:35:52.450Z,1.00
2023-05-23T05:38:19.600Z,1.00
2023-05-23T05:40:46.660Z,1.00
2023-05-23T05:43:13.672Z,1.00
2023-05-23T05:45:40.805Z,1.00
2023-05-23T05:48:08.412Z,1.00
2023-05-23T05:50:35.681Z,1.00
2023-05-23T05:53:03.445Z,1.00
2023-05-23T05:55:30.635Z,1.00
2023-05-23T05:57:57.561Z,1.00
2023-05-23T06:00:25.311Z,1.00
2023-05-23T06:02:52.640Z,1.00
2023-05-23T06:05:19.796Z,1.00
2023-05-23T06:07:49.853Z,1.00
2023-05-23T06:10:17.076Z,1.00
2023-05-23T06:12:45.876Z,1.00
2023-05-23T06:15:16.183Z,1.00
2023-05-23T06:17:44.965Z,1.00
2023-05-23T06:20:16.638Z,1.00
2023-05-23T06:22:43.712Z,1.00
2023-05-23T06:25:10.814Z,1.00
2023-05-23T06:27:38.190Z,1.00
2023-05-23T06:30:06.008Z,1.00
2023-05-23T06:32:33.237Z,1.00
2023-05-23T06:35:00.211Z,1.00
2023-05-23T06:37:27.073Z,1.00
2023-05-23T06:39:53.945Z,1.00
2023-05-23T06:42:20.877Z,1.00
2023-05-23T06:44:47.817Z,1.00
2023-05-23T06:47:14.704Z,1.00
2023-05-23T06:49:41.614Z,1.00
2023-05-23T06:52:08.596Z,1.00
2023-05-23T06:54:35.586Z,1.00
2023-05-23T06:57:03.846Z,1.00
2023-05-23T06:59:30.890Z,1.00
2023-05-23T07:01:57.852Z,1.00
2023-05-23T07:04:24.727Z,1.00
2023-05-23T07:06:52.716Z,1.00
2023-05-23T07:09:20.167Z,1.00
2023-05-23T07:11:47.098Z,1.00
2023-05-23T07:14:15.376Z,1.00
2023-05-23T07:16:42.434Z,1.00
2023-05-23T07:19:09.470Z,1.00
2023-05-23T07:21:36.628Z,1.00
2023-05-23T07:24:03.788Z,1.00
2023-05-23T07:26:31.002Z,1.00
2023-05-23T07:28:58.722Z,1.00
2023-05-23T07:31:26.056Z,1.00
2023-05-23T07:33:56.741Z,1.00
2023-05-23T07:36:24.505Z,1.00
2023-05-23T07:38:53.355Z,1.00
2023-05-23T07:41:20.327Z,1.00
2023-05-23T07:43:47.185Z,1.00
2023-05-23T07:46:14.057Z,1.00
2023-05-23T07:48:41.205Z,1.00
2023-05-23T07:51:08.161Z,1.00
2023-05-23T07:53:35.211Z,1.00
2023-05-23T07:56:02.159Z,1.00
2023-05-23T07:58:29.523Z,1.00
2023-05-23T08:00:58.039Z,1.00
2023-05-23T08:03:25.545Z,1.00
2023-05-23T08:05:52.421Z,1.00
2023-05-23T08:08:19.308Z,1.00
2023-05-23T08:10:47.157Z,1.00
2023-05-23T08:13:14.382Z,1.00
2023-05-23T08:18:08.718Z,1.00
2023-05-23T08:20:35.941Z,16.20
2023-05-23T08:23:03.233Z,24.10
2023-05-23T08:25:30.994Z,36.30
2023-05-23T08:27:58.838Z,24.20
2023-05-23T08:30:26.865Z,24.80
2023-05-23T08:35:23.605Z,29.80
2023-05-23T08:37:50.902Z,44.10
2023-05-23T08:40:22.820Z,62.50
2023-05-23T08:42:50.955Z,73.40
2023-05-23T08:47:47.393Z,91.80
2023-05-23T08:50:18.104Z,95.40
2023-05-23T08:55:30.326Z,41.30
2023-05-23T08:58:00.767Z,50.70
2023-05-23T09:00:28.702Z,46.60
2023-05-23T09:02:57.117Z,50.10
2023-05-23T09:05:24.255Z,53.70
2023-05-23T09:07:51.892Z,63.50
2023-05-23T09:10:22.702Z,54.60
2023-05-23T09:12:50.122Z,73.30
2023-05-23T09:15:17.349Z,80.90
2023-05-23T09:17:45.519Z,80.90
2023-05-23T09:20:16.944Z,89.90
2023-05-23T09:22:48.368Z,99.00
2023-05-23T09:25:16.028Z,99.90
2023-05-23T09:27:46.573Z,99.90
2023-05-23T09:30:15.496Z,99.90
2023-05-23T09:32:42.793Z,99.90
2023-05-23T09:35:14.301Z,99.90
2023-05-23T09:37:45.895Z,99.90
2023-05-23T09:40:14.685Z,99.90
2023-05-23T09:45:18.903Z,99.90
2023-05-23T09:47:53.109Z,99.90
2023-05-23T09:50:21.202Z,99.90
2023-05-23T09:55:15.755Z,99.90
2023-05-23T09:57:44.328Z,99.90
2023-05-23T10:00:13.805Z,96.30
2023-05-23T10:03:13.968Z,91.30
2023-05-23T10:05:53.347Z,98.70
2023-05-23T10:08:27.333Z,90.10
2023-05-23T10:10:57.466Z,96.90
2023-05-23T10:13:28.872Z,98.30
2023-05-23T10:16:22.129Z,92.70
2023-05-23T10:18:56.468Z,90.90
2023-05-23T10:21:46.780Z,81.20
2023-05-23T10:24:14.222Z,81.30
2023-05-23T10:26:41.493Z,81.10
2023-05-23T10:29:08.424Z,65.80
2023-05-23T10:31:36.525Z,31.20
2023-05-23T10:34:19.478Z,34.50
2023-05-23T10:37:04.962Z,23.30
2023-05-23T10:39:54.458Z,23.30
2023-05-23T10:42:34.424Z,13.50
2023-05-23T10:45:16.691Z,12.30
2023-05-23T10:47:43.706Z,5.20
2023-05-23T10:50:15.412Z,1.00
2023-05-23T10:52:43.437Z,8.50
2023-05-23T10:55:15.424Z,1.00
2023-05-23T10:57:43.892Z,1.00
2023-05-23T11:00:25.319Z,1.00
2023-05-23T11:05:25.080Z,1.00
2023-05-23T11:08:14.675Z,1.00
2023-05-23T11:10:55.037Z,1.00
2023-05-23T11:13:23.134Z,1.00
2023-05-23T11:15:50.524Z,1.00
2023-05-23T11:18:31.047Z,1.00
2023-05-23T11:20:59.880Z,1.00
2023-05-23T11:23:41.331Z,1.00
2023-05-23T11:26:34.247Z,1.00
2023-05-23T11:29:03.566Z,1.00
2023-05-23T11:31:30.821Z,1.00
2023-05-23T11:33:57.992Z,1.00
2023-05-23T11:36:24.984Z,1.00
2023-05-23T11:38:53.273Z,1.00
2023-05-23T11:41:20.242Z,1.00
2023-05-23T11:43:56.035Z,1.00
2023-05-23T11:46:23.005Z,1.00
2023-05-23T11:48:49.993Z,1.00
2023-05-23T11:51:17.913Z,1.00
2023-05-23T11:53:44.877Z,1.00
2023-05-23T11:56:11.916Z,1.00
2023-05-23T11:58:39.693Z,1.00
2023-05-23T12:01:12.252Z,1.00
2023-05-23T12:03:50.440Z,1.00
2023-05-23T12:06:23.566Z,1.00
2023-05-23T12:08:52.608Z,1.00
2023-05-23T12:11:19.574Z,1.00
2023-05-23T12:13:48.399Z,1.00
2023-05-23T12:16:15.853Z,1.00
2023-05-23T12:18:43.445Z,1.00
2023-05-23T12:21:11.147Z,1.00
2023-05-23T12:23:39.595Z,1.00
2023-05-23T12:26:07.889Z,1.00
2023-05-23T12:28:45.949Z,1.00
2023-05-23T12:31:14.007Z,1.00
2023-05-23T12:33:44.111Z,1.00
2023-05-23T12:36:15.401Z,1.00
2023-05-23T12:38:45.713Z,1.00
2023-05-23T12:41:16.683Z,1.00
2023-05-23T12:43:54.541Z,1.00
2023-05-23T12:46:23.130Z,1.00
2023-05-23T12:48:50.138Z,1.00
2023-05-23T12:51:17.638Z,1.00
2023-05-23T12:53:44.789Z,1.00
2023-05-23T12:56:11.944Z,1.00
2023-05-23T12:58:39.053Z,1.00
2023-05-23T13:01:06.322Z,1.00
2023-05-23T13:03:33.441Z,1.00
2023-05-23T13:06:00.453Z,1.00
2023-05-23T13:08:27.616Z,1.00
2023-05-23T13:10:54.628Z,1.00
2023-05-23T13:13:22.427Z,1.00
2023-05-23T13:15:51.276Z,1.00
2023-05-23T13:18:18.937Z,1.00
2023-05-23T13:20:46.464Z,1.00
2023-05-23T13:23:13.999Z,1.00
2023-05-23T13:25:41.361Z,1.00
2023-05-23T13:28:08.668Z,1.00
2023-05-23T13:30:35.619Z,1.00
2023-05-23T13:33:03.607Z,1.00
2023-05-23T13:35:30.879Z,1.00
2023-05-23T13:37:57.968Z,1.00
2023-05-23T13:40:24.938Z,1.00
2023-05-23T13:42:52.498Z,1.00
2023-05-23T13:45:20.357Z,1.00
2023-05-23T13:47:47.487Z,1.00
2023-05-23T13:50:14.765Z,1.00
2023-05-23T13:52:44.807Z,1.00
2023-05-23T13:55:12.972Z,1.00
2023-05-23T13:57:39.931Z,1.00
2023-05-23T14:00:08.907Z,1.00
2023-05-23T14:02:35.989Z,1.00
2023-05-23T14:05:03.785Z,1.00
2023-05-23T14:07:31.360Z,1.00
2023-05-23T14:09:59.761Z,1.00
2023-05-23T14:12:27.042Z,1.00
2023-05-23T14:14:53.965Z,1.00
2023-05-23T14:17:20.971Z,1.00
2023-05-23T14:19:48.157Z,1.00
2023-05-23T14:22:15.182Z,1.00
2023-05-23T14:24:42.532Z,1.00
2023-05-23T14:27:11.078Z,1.00
2023-05-23T14:29:38.795Z,1.00
2023-05-23T14:32:06.229Z,1.00
2023-05-23T14:34:33.312Z,1.00
2023-05-23T14:37:01.297Z,1.00
2023-05-23T14:39:29.174Z,1.00
2023-05-23T14:41:56.294Z,1.00
2023-05-23T14:44:23.271Z,1.00
2023-05-23T14:46:50.390Z,1.00
2023-05-23T14:49:18.170Z,1.00
2023-05-23T14:51:50.751Z,1.00
2023-05-23T14:54:18.913Z,1.00
2023-05-23T14:56:46.120Z,1.00
2023-05-23T14:59:13.435Z,1.00
2023-05-23T15:01:41.024Z,1.00
2023-05-23T15:04:11.687Z,1.00
2023-05-23T15:06:40.305Z,1.00
2023-05-23T15:09:08.336Z,1.00
2023-05-23T15:11:37.142Z,1.00
2023-05-23T15:14:04.364Z,1.00
2023-05-23T15:16:33.149Z,1.00
2023-05-23T15:19:00.498Z,1.00
2023-05-23T15:21:27.964Z,1.00
2023-05-23T15:23:55.035Z,1.00
2023-05-23T15:26:22.580Z,1.00
2023-05-23T15:28:49.738Z,1.00
2023-05-23T15:31:16.720Z,1.00
2023-05-23T15:33:43.955Z,1.00
2023-05-23T15:36:13.146Z,1.00
2023-05-23T15:38:40.394Z,1.00
2023-05-23T15:41:07.337Z,1.00
2023-05-23T15:43:35.646Z,1.00
2023-05-23T15:46:03.057Z,1.00
2023-05-23T15:48:30.124Z,1.00
2023-05-23T15:50:57.147Z,1.00
2023-05-23T15:53:24.061Z,1.00
2023-05-23T15:55:51.037Z,1.00
2023-05-23T15:58:18.017Z,1.00
2023-05-23T16:00:44.995Z,1.00
2023-05-23T16:03:12.000Z,1.00
2023-05-23T16:05:39.262Z,1.00
2023-05-23T16:08:06.342Z,1.00
2023-05-23T16:10:33.211Z,1.00
2023-05-23T16:13:00.158Z,1.00
2023-05-23T16:15:27.097Z,1.00
2023-05-23T16:17:54.045Z,1.00
2023-05-23T16:20:21.007Z,1.00
2023-05-23T16:22:48.283Z,1.00
2023-05-23T16:25:15.208Z,1.00
2023-05-23T16:27:42.142Z,1.00
2023-05-23T16:30:09.916Z,1.00
2023-05-23T16:32:37.053Z,1.00
2023-05-23T16:35:04.278Z,1.00
2023-05-23T16:37:31.182Z,1.00
2023-05-23T16:39:58.118Z,1.00
2023-05-23T16:42:25.131Z,1.00
2023-05-23T16:44:52.899Z,1.00
2023-05-23T16:47:19.972Z,1.00
2023-05-23T16:49:47.404Z,1.00
2023-05-23T16:52:14.543Z,1.00
2023-05-23T16:54:41.501Z,1.00
2023-05-23T16:57:08.407Z,1.00
2023-05-23T16:59:35.478Z,1.00
2023-05-23T17:02:02.713Z,1.00
2023-05-23T17:04:29.623Z,1.00
2023-05-23T17:06:56.626Z,1.00
2023-05-23T17:09:23.516Z,1.00
2023-05-23T17:11:51.036Z,1.00
2023-05-23T17:14:17.991Z,1.00
2023-05-23T17:16:44.988Z,1.00
2023-05-23T17:19:11.958Z,1.00
2023-05-23T17:21:39.004Z,1.00
2023-05-23T17:24:06.022Z,1.00
2023-05-23T17:26:32.974Z,1.00
2023-05-23T17:28:59.946Z,1.00
2023-05-23T17:31:28.996Z,1.00
2023-05-23T17:33:57.603Z,1.00
2023-05-23T17:36:24.749Z,1.00
2023-05-23T17:38:53.799Z,1.00
2023-05-23T17:41:23.765Z,1.00
2023-05-23T17:43:50.746Z,1.00
2023-05-23T17:46:17.756Z,1.00
2023-05-23T17:48:47.161Z,1.00
2023-05-23T17:51:15.739Z,1.00
2023-05-23T17:53:42.904Z,1.00
2023-05-23T17:56:10.085Z,1.00
2023-05-23T17:58:39.225Z,1.00
2023-05-23T18:01:07.789Z,1.00
2023-05-23T18:03:34.942Z,1.00
2023-05-23T18:06:01.874Z,1.00
2023-05-23T18:08:28.799Z,1.00
2023-05-23T18:10:55.726Z,1.00
2023-05-23T18:13:22.686Z,1.00
2023-05-23T18:15:49.692Z,1.00
2023-05-23T18:18:17.943Z,1.00
2023-05-23T18:20:45.002Z,1.00
2023-05-23T18:23:12.150Z,1.00
2023-05-23T18:25:39.144Z,1.00
2023-05-23T18:28:06.138Z,1.00
2023-05-23T18:30:33.765Z,1.00
2023-05-23T18:33:01.090Z,1.00
2023-05-23T18:35:28.347Z,1.00
2023-05-23T18:37:55.391Z,1.00
2023-05-23T18:40:23.978Z,1.00
2023-05-23T18:42:51.059Z,1.00
2023-05-23T18:45:18.023Z,1.00
2023-05-23T18:47:45.221Z,1.00
2023-05-23T18:50:13.204Z,1.00
2023-05-23T18:52:40.568Z,1.00
2023-05-23T18:55:08.448Z,1.00
2023-05-23T18:57:35.417Z,1.00
2023-05-23T19:00:04.263Z,1.00
2023-05-23T19:02:31.553Z,1.00
2023-05-23T19:04:58.531Z,1.00
2023-05-23T19:07:25.814Z,1.00
2023-05-23T19:09:52.740Z,1.00
2023-05-23T19:12:19.979Z,1.00
2023-05-23T19:14:47.150Z,1.00
2023-05-23T19:17:14.054Z,1.00
2023-05-23T19:19:41.155Z,1.00
2023-05-23T19:22:08.183Z,1.00
2023-05-23T19:24:35.515Z,1.00
2023-05-23T19:27:02.427Z,1.00
2023-05-23T19:29:29.314Z,1.00
2023-05-23T19:31:57.148Z,1.00
2023-05-23T19:34:24.314Z,1.00
2023-05-23T19:36:51.482Z,1.00
2023-05-23T19:39:18.477Z,1.00
2023-05-23T19:41:45.685Z,1.00
2023-05-23T19:44:13.281Z,1.00
2023-05-23T19:46:40.353Z,1.00
2023-05-23T19:49:08.352Z,1.00
2023-05-23T19:51:36.684Z,1.00
2023-05-23T19:54:04.074Z,1.00
2023-05-23T19:56:31.096Z,1.00
2023-05-23T19:58:58.097Z,1.00
2023-05-23T20:01:25.157Z,1.00
2023-05-23T20:03:52.441Z,1.00
2023-05-23T20:06:20.700Z,1.00
2023-05-23T20:08:48.013Z,1.00
2023-05-23T20:11:15.027Z,1.00
2023-05-23T20:13:42.010Z,1.00
2023-05-23T20:16:09.070Z,1.00
2023-05-23T20:18:36.416Z,1.00
2023-05-23T20:21:05.180Z,1.00
2023-05-23T20:23:32.778Z,1.00
2023-05-23T20:26:00.373Z,1.00
2023-05-23T20:28:27.664Z,1.00
2023-05-23T20:30:54.782Z,1.00
2023-05-23T20:33:21.973Z,1.00
2023-05-23T20:35:49.107Z,1.00
2023-05-23T20:38:18.641Z,1.00
2023-05-23T20:40:49.245Z,1.00
2023-05-23T20:43:17.724Z,1.00
2023-05-23T20:45:44.767Z,1.00
2023-05-23T20:48:11.754Z,1.00
2023-05-23T20:50:39.319Z,1.00
2023-05-23T20:53:06.789Z,1.00
2023-05-23T20:55:35.414Z,1.00
2023-05-23T20:58:02.490Z,1.00
2023-05-23T21:00:29.443Z,1.00
2023-05-23T21:02:56.729Z,1.00
2023-05-23T21:05:23.878Z,1.00
2023-05-23T21:07:51.170Z,1.00
2023-05-23T21:10:18.391Z,1.00
2023-05-23T21:12:50.194Z,1.00
2023-05-23T21:15:18.093Z,1.00
2023-05-23T21:17:45.402Z,1.00
2023-05-23T21:20:13.185Z,1.00
2023-05-23T21:22:40.467Z,1.00
2023-05-23T21:25:07.698Z,1.00
2023-05-23T21:27:34.726Z,1.00
2023-05-23T21:30:01.741Z,1.00
2023-05-23T21:32:29.270Z,1.00
2023-05-23T21:34:56.589Z,1.00
2023-05-23T21:37:23.464Z,1.00
2023-05-23T21:39:52.317Z,1.00
2023-05-23T21:42:20.997Z,1.00
2023-05-23T21:44:48.135Z,1.00
2023-05-23T21:47:15.307Z,1.00
2023-05-23T21:49:42.274Z,1.00
2023-05-23T21:52:09.282Z,1.00
2023-05-23T21:54:36.312Z,1.00
2023-05-23T21:57:03.288Z,1.00
2023-05-23T21:59:30.199Z,1.00
2023-05-23T22:01:57.186Z,1.00
2023-05-23T22:04:24.175Z,1.00
2023-05-23T22:06:51.917Z,1.00
2023-05-23T22:09:18.900Z,1.00
2023-05-23T22:11:46.158Z,1.00
2023-05-23T22:14:13.205Z,1.00
2023-05-23T22:16:40.354Z,1.00
2023-05-23T22:19:09.773Z,1.00
2023-05-23T22:21:37.037Z,1.00
2023-05-23T22:24:04.905Z,1.00
2023-05-23T22:26:32.304Z,1.00
2023-05-23T22:28:59.397Z,1.00
2023-05-23T22:31:26.554Z,1.00
2023-05-23T22:33:53.708Z,1.00
2023-05-23T22:36:22.180Z,1.00
2023-05-23T22:38:49.189Z,1.00
2023-05-23T22:41:16.199Z,1.00
2023-05-23T22:43:43.358Z,1.00
2023-05-23T22:46:10.376Z,1.00
2023-05-23T22:48:38.084Z,1.00
2023-05-23T22:51:05.944Z,1.00
2023-05-23T22:53:32.930Z,1.00
2023-05-23T22:55:59.905Z,1.00
2023-05-23T22:58:26.974Z,1.00
2023-05-23T23:00:53.881Z,1.00
2023-05-23T23:03:20.961Z,1.00
2023-05-23T23:05:48.059Z,1.00
2023-05-23T23:08:16.167Z,1.00
2023-05-23T23:10:43.851Z,1.00
2023-05-23T23:13:13.710Z,1.00
2023-05-23T23:15:42.848Z,1.00
2023-05-23T23:18:10.145Z,1.00
2023-05-23T23:20:38.842Z,1.00
2023-05-23T23:23:05.997Z,1.00
2023-05-23T23:25:33.431Z,1.00
2023-05-23T23:28:00.930Z,1.00
2023-05-23T23:30:28.045Z,1.00
2023-05-23T23:32:54.987Z,1.00
2023-05-23T23:35:22.104Z,1.00
2023-05-23T23:37:49.062Z,1.00
2023-05-23T23:40:16.304Z,1.00
2023-05-23T23:42:43.201Z,1.00
2023-05-23T23:45:10.602Z,1.00
2023-05-23T23:47:37.743Z,1.00
2023-05-23T23:50:05.116Z,1.00
2023-05-23T23:52:32.977Z,1.00
2023-05-23T23:54:59.953Z,1.00
2023-05-23T23:57:26.843Z,1.00
2023-05-23T23:59:53.780Z,1.00
